Time;durP1;ratioP1;P1;durP2;ratioP2;P2;SDS_P1;SDS_P2;PMS_P1;PMS_P2;Temp;Humidity;BMP_temperature;BMP_pressure;BME280_temperature;BME280_humidity;BME280_pressure;Samples;Min_cycle;Max_cycle;Signal;HPM_P1;HPM_P2
2022/08/01 00:01:29;;;;;;;7.75;5.00;;;;;;;15.75;97.99;99894.48;1675455;85;25629;-68
2022/08/01 00:03:56;;;;;;;13.65;6.35;;;;;;;15.74;98.02;99892.92;1678550;85;26309;-68
2022/08/01 00:06:22;;;;;;;6.65;5.17;;;;;;;15.75;98.10;99894.48;1674953;85;25603;-68
2022/08/01 00:08:48;;;;;;;6.75;5.22;;;;;;;15.73;97.93;99891.33;1675027;85;27413;-68
2022/08/01 00:11:14;;;;;;;6.47;5.10;;;;;;;15.72;97.79;99896.00;1675028;84;33209;-68
2022/08/01 00:13:40;;;;;;;6.05;5.12;;;;;;;15.70;97.85;99895.56;1677138;84;29646;-68
2022/08/01 00:16:06;;;;;;;7.53;5.75;;;;;;;15.69;97.60;99891.24;1676942;85;25745;-68
2022/08/01 00:18:32;;;;;;;9.03;5.12;;;;;;;15.66;97.64;99883.22;1676887;84;25413;-68
2022/08/01 00:20:59;;;;;;;7.90;5.72;;;;;;;15.66;97.79;99883.77;1657114;85;28165;-68
2022/08/01 00:23:24;;;;;;;7.83;5.12;;;;;;;15.65;97.70;99882.20;1676794;84;33140;-68
2022/08/01 00:25:50;;;;;;;11.85;5.67;;;;;;;15.63;97.83;99877.09;1676983;85;29710;-68
2022/08/01 00:28:16;;;;;;;6.45;5.15;;;;;;;15.62;97.82;99876.09;1677221;84;25568;-68
2022/08/01 00:30:43;;;;;;;6.90;5.55;;;;;;;15.62;98.02;99881.54;1676941;85;25397;-68
2022/08/01 00:33:09;;;;;;;9.05;5.58;;;;;;;15.59;98.02;99883.02;1676944;85;28024;-68
2022/08/01 00:35:35;;;;;;;10.43;5.30;;;;;;;15.59;98.04;99883.60;1676761;85;25906;-68
2022/08/01 00:38:02;;;;;;;6.75;5.42;;;;;;;15.59;98.25;99884.96;1679468;84;25586;-68
2022/08/01 00:40:28;;;;;;;5.58;4.78;;;;;;;15.60;98.25;99885.20;1682716;85;25675;-68
2022/08/01 00:42:54;;;;;;;8.38;5.62;;;;;;;15.59;98.38;99883.02;1678495;85;25598;-68
2022/08/01 00:45:20;;;;;;;7.65;5.35;;;;;;;15.61;98.38;99879.95;1680250;85;27524;-68
2022/08/01 00:47:46;;;;;;;5.65;4.85;;;;;;;15.61;98.53;99877.22;1676894;85;33379;-68
2022/08/01 00:50:12;;;;;;;5.92;4.95;;;;;;;15.62;98.51;99874.14;1676945;84;25410;-68
2022/08/01 00:52:40;;;;;;;6.65;4.55;;;;;;;15.62;98.53;99880.95;1676856;85;25460;-68
2022/08/01 00:55:09;;;;;;;9.93;4.75;;;;;;;15.63;98.65;99881.73;1676834;85;25602;-68
2022/08/01 00:57:36;;;;;;;5.87;5.17;;;;;;;15.63;98.51;99881.19;1657526;85;27979;-68
2022/08/01 01:00:05;;;;;;;5.12;4.47;;;;;;;15.64;98.37;99879.25;1676760;85;25583;-68
2022/08/01 01:02:32;;;;;;;7.17;4.58;;;;;;;15.62;98.46;99874.14;1676921;85;25484;-68
2022/08/01 01:04:58;;;;;;;6.15;4.62;;;;;;;15.62;98.43;99880.95;1676926;84;25626;-68
2022/08/01 01:07:33;;;;;;;8.00;4.08;;;;;;;15.62;98.36;99876.09;1677017;84;25416;-68
2022/08/01 01:10:14;;;;;;;9.00;4.42;;;;;;;15.59;98.15;99880.30;1676723;85;26932;-67
2022/08/01 01:12:49;;;;;;;7.72;5.10;;;;;;;15.59;98.16;99879.52;1676692;85;25515;-66
2022/08/01 01:15:39;;;;;;;7.85;4.42;;;;;;;15.58;98.27;99877.92;1677954;85;25610;-68
2022/08/01 01:18:23;;;;;;;5.37;4.87;;;;;;;15.59;98.42;99871.34;1679127;84;26055;-68
2022/08/01 01:21:09;;;;;;;4.75;4.33;;;;;;;15.57;98.39;99875.77;1681625;84;25469;-66
2022/08/01 01:23:46;;;;;;;6.72;4.58;;;;;;;15.57;98.33;99873.05;1682186;84;26929;-66
2022/08/01 01:26:56;;;;;;;8.03;4.80;;;;;;;15.56;98.19;99872.03;1681810;85;25733;-67
2022/08/01 01:29:36;;;;;;;5.25;4.42;;;;;;;15.54;98.19;99873.75;1679826;84;25629;-68
2022/08/01 01:32:20;;;;;;;;;;;;;;;15.53;98.35;99872.73;1684304;85;25649;-68
2022/08/01 01:34:50;;;;;;;10.63;4.47;;;;;;;15.52;98.41;99868.44;1681701;85;25468;-66
2022/08/01 01:37:23;;;;;;;7.90;5.03;;;;;;;15.49;98.36;99869.38;1681663;85;28074;-66
2022/08/01 01:39:51;;;;;;;7.75;5.08;;;;;;;15.47;98.26;99870.27;1673417;84;25551;-66
2022/08/01 01:42:20;;;;;;;5.95;4.72;;;;;;;15.45;98.36;99863.61;1674952;85;25593;-66
2022/08/01 01:44:48;;;;;;;9.23;5.45;;;;;;;15.45;98.29;99869.06;1679060;84;25687;-66
2022/08/01 01:47:17;;;;;;;6.60;5.20;;;;;;;15.42;98.31;99863.72;1675236;85;25572;-66
2022/08/01 01:49:47;;;;;;;6.40;5.78;;;;;;;15.41;98.16;99866.80;1675060;84;27379;-67
2022/08/01 01:52:17;;;;;;;7.30;4.90;;;;;;;15.41;98.43;99867.61;1674848;85;25730;-67
2022/08/01 01:54:47;;;;;;;9.68;5.75;;;;;;;15.40;98.45;99870.11;1675013;85;25633;-67
2022/08/01 01:57:16;;;;;;;9.55;4.80;;;;;;;15.38;98.21;99871.03;1674915;85;25600;-67
2022/08/01 01:59:44;;;;;;;5.47;4.20;;;;;;;15.35;97.92;99874.45;1675203;85;25628;-67
2022/08/01 02:02:12;;;;;;;6.30;5.05;;;;;;;15.32;97.87;99869.70;1674883;85;28109;-67
2022/08/01 02:04:42;;;;;;;10.23;5.47;;;;;;;15.30;97.84;99875.50;1655414;85;25656;-67
2022/08/01 02:07:13;;;;;;;10.03;4.97;;;;;;;15.27;97.76;99872.14;1661772;85;25621;-66
2022/08/01 02:09:43;;;;;;;5.20;4.40;;;;;;;15.24;97.71;99878.28;1677019;84;26309;-66
2022/08/01 02:12:12;;;;;;;9.18;4.67;;;;;;;15.21;97.56;99876.83;1675042;84;25400;-66
2022/08/01 02:14:40;;;;;;;8.93;4.87;;;;;;;15.17;97.70;99874.02;1672053;85;26755;-66
2022/08/01 02:17:11;;;;;;;12.85;5.28;;;;;;;15.13;97.77;99880.71;1661377;84;25754;-66
2022/08/01 02:19:38;;;;;;;9.08;4.50;;;;;;;15.11;97.92;99875.41;1676065;84;25729;-66
2022/08/01 02:22:12;;;;;;;9.90;5.12;;;;;;;15.10;97.84;99875.17;1671270;85;25578;-66
2022/08/01 02:24:46;;;;;;;7.37;5.42;;;;;;;15.07;97.76;99871.23;1649131;86;25498;-67
2022/08/01 02:27:18;;;;;;;8.33;5.08;;;;;;;15.07;97.97;99876.68;1666769;86;28123;-67
2022/08/01 02:30:00;;;;;;;6.53;4.78;;;;;;;15.06;97.91;99872.94;1667212;85;25662;-67
2022/08/01 02:32:38;;;;;;;7.85;4.65;;;;;;;15.04;97.84;99871.14;1668721;84;25671;-67
2022/08/01 02:35:09;;;;;;;10.05;5.37;;;;;;;15.02;97.83;99878.30;1669176;84;25697;-66
2022/08/01 02:37:39;;;;;;;7.22;4.55;;;;;;;15.01;97.94;99878.64;1667821;85;25649;-67
2022/08/01 02:40:08;;;;;;;8.63;5.33;;;;;;;15.00;97.93;99874.33;1671328;85;28115;-67
2022/08/01 02:42:37;;;;;;;6.62;4.97;;;;;;;14.98;97.76;99882.84;1667573;85;25633;-67
2022/08/01 02:45:08;;;;;;;6.17;4.87;;;;;;;14.98;97.76;99886.14;1668257;84;25476;-68
2022/08/01 02:47:37;;;;;;;8.25;5.05;;;;;;;14.97;97.54;99882.64;1667423;85;25589;-67
2022/08/01 02:50:07;;;;;;;9.70;4.97;;;;;;;14.94;97.62;99886.83;1667648;84;33136;-68
2022/08/01 02:52:36;;;;;;;7.33;4.85;;;;;;;14.92;97.65;99882.31;1671451;85;27479;-67
2022/08/01 02:55:04;;;;;;;13.30;5.20;;;;;;;14.91;97.43;99884.02;1667634;84;25594;-67
2022/08/01 02:57:33;;;;;;;7.50;4.67;;;;;;;14.90;97.46;99889.26;1667188;86;25647;-68
2022/08/01 03:00:00;;;;;;;7.75;4.55;;;;;;;14.88;97.17;99884.16;1667151;86;25655;-67
2022/08/01 03:02:29;;;;;;;8.13;5.10;;;;;;;14.85;96.99;99884.06;1667377;85;25586;-67
2022/08/01 03:04:58;;;;;;;9.30;4.50;;;;;;;14.82;96.88;99895.64;1667788;85;27371;-67
2022/08/01 03:07:25;;;;;;;;;;;;;;;14.80;96.91;99889.77;1669827;85;25694;-67
2022/08/01 03:09:53;;;;;;;9.78;5.30;;;;;;;14.77;96.75;99890.45;1667290;85;25312;-67
2022/08/01 03:12:23;;;;;;;8.50;5.00;;;;;;;14.74;96.83;99892.73;1667246;85;25649;-67
2022/08/01 03:14:54;;;;;;;8.33;5.00;;;;;;;14.71;96.87;99878.45;1671354;84;25476;-67
2022/08/01 03:17:23;;;;;;;6.53;4.87;;;;;;;14.69;96.79;99886.17;1670535;84;27396;-67
2022/08/01 03:19:51;;;;;;;8.88;5.35;;;;;;;14.68;96.79;99878.35;1685176;84;26361;-67
2022/08/01 03:22:21;;;;;;;8.00;5.08;;;;;;;14.66;96.85;99877.88;1682020;84;25812;-68
2022/08/01 03:24:52;;;;;;;7.05;5.37;;;;;;;14.64;96.83;99880.16;1681834;85;25744;-67
2022/08/01 03:27:22;;;;;;;10.75;5.45;;;;;;;14.59;96.87;99878.47;1682008;84;25635;-67
2022/08/01 03:29:50;;;;;;;8.53;5.15;;;;;;;14.56;96.71;99881.30;1682157;84;27312;-67
2022/08/01 03:32:19;;;;;;;7.90;5.17;;;;;;;14.52;96.79;99877.70;1681430;85;25476;-67
2022/08/01 03:34:46;;;;;;;7.80;5.15;;;;;;;14.51;96.79;99879.40;1682000;85;25581;-67
2022/08/01 03:37:18;;;;;;;8.40;4.83;;;;;;;14.48;96.94;99876.78;1687887;84;26276;-66
2022/08/01 03:40:01;;;;;;;11.95;4.75;;;;;;;14.47;96.95;99887.47;1684843;84;25676;-67
2022/08/01 03:42:32;;;;;;;5.42;4.90;;;;;;;14.45;97.10;99891.08;1675076;85;27358;-67
2022/08/01 03:45:10;;;;;;;10.08;5.35;;;;;;;14.44;97.11;99900.39;1676266;85;25725;-66
2022/08/01 03:47:57;;;;;;;9.73;4.92;;;;;;;14.45;97.26;99910.70;1676984;84;25447;-67
2022/08/01 03:50:25;;;;;;;6.87;4.70;;;;;;;14.44;97.52;99904.48;1674539;85;25761;-66
2022/08/01 03:52:54;;;;;;;11.03;5.47;;;;;;;14.46;97.87;99910.94;1674672;84;25591;-66
2022/08/01 03:55:21;;;;;;;11.53;5.97;;;;;;;14.49;98.07;99918.39;1674759;84;27424;-66
2022/08/01 03:57:48;;;;;;;11.00;5.75;;;;;;;14.50;98.18;99915.91;1674379;85;25776;-67
2022/08/01 04:00:18;;;;;;;8.60;5.45;;;;;;;14.51;98.35;99914.20;1673039;84;25387;-67
2022/08/01 04:02:47;;;;;;;11.63;6.00;;;;;;;14.54;98.56;99913.52;1672583;85;25636;-67
2022/08/01 04:05:15;;;;;;;9.03;6.58;;;;;;;14.57;98.60;99917.46;1674595;84;25635;-67
2022/08/01 04:07:55;;;;;;;14.25;6.47;;;;;;;14.58;98.55;99924.50;1674550;84;27430;-66
2022/08/01 04:10:18;;;;;;;11.57;6.60;;;;;;;14.60;98.60;99920.11;1674385;84;25882;-66
2022/08/01 04:12:44;;;;;;;10.78;5.90;;;;;;;14.61;98.74;99921.12;1674467;84;25612;-66
2022/08/01 04:15:11;;;;;;;13.53;6.70;;;;;;;14.62;98.56;99929.50;1674478;84;25616;-66
2022/08/01 04:17:36;;;;;;;10.63;6.05;;;;;;;14.62;98.50;99924.63;1674495;83;25403;-66
2022/08/01 04:20:04;;;;;;;13.20;6.20;;;;;;;14.64;98.72;99934.05;1674511;85;27430;-66
2022/08/01 04:22:30;;;;;;;12.25;6.37;;;;;;;14.66;98.75;99930.95;1674395;85;25402;-66
2022/08/01 04:24:58;;;;;;;10.18;5.78;;;;;;;14.69;98.99;99936.53;1671094;84;25654;-66
2022/08/01 04:27:29;;;;;;;15.30;6.35;;;;;;;14.71;98.89;99941.60;1653811;85;25790;-66
2022/08/01 04:29:59;;;;;;;7.95;6.03;;;;;;;14.74;99.00;99941.73;1675382;84;25570;-66
2022/08/01 04:32:30;;;;;;;12.43;5.97;;;;;;;14.77;99.06;99939.45;1676116;84;27383;-65
2022/08/01 04:34:59;;;;;;;10.23;6.00;;;;;;;14.81;99.30;99938.97;1674357;85;25438;-67
2022/08/01 04:37:28;;;;;;;11.90;6.65;;;;;;;14.86;99.43;99944.17;1674577;84;25582;-65
2022/08/01 04:39:56;;;;;;;8.80;5.78;;;;;;;14.90;99.52;99941.78;1656146;85;25624;-65
2022/08/01 04:42:23;;;;;;;16.05;6.50;;;;;;;14.96;99.40;99941.53;1674559;85;25567;-66
2022/08/01 04:44:51;;;;;;;7.53;5.90;;;;;;;14.96;99.42;99932.00;1674612;84;27304;-66
2022/08/01 04:47:18;;;;;;;8.68;5.42;;;;;;;15.06;99.68;99951.92;1672659;84;25671;-67
2022/08/01 04:49:45;;;;;;;11.33;6.42;;;;;;;15.11;100.00;99946.23;1675656;82;25569;-66
2022/08/01 04:52:12;;;;;;;8.83;5.90;;;;;;;15.18;100.00;99950.50;1677400;84;25670;-66
2022/08/01 04:54:38;;;;;;;8.60;5.20;;;;;;;15.24;99.98;99950.48;1677338;85;25628;-66
2022/08/01 04:57:06;;;;;;;12.07;7.75;;;;;;;15.27;99.29;99954.42;1676733;85;27374;-66
2022/08/01 04:59:39;;;;;;;8.15;6.10;;;;;;;15.30;99.26;99949.06;1676707;85;25457;-66
2022/08/01 05:02:15;;;;;;;9.28;5.45;;;;;;;15.35;99.22;99952.12;1628604;87;25649;-66
2022/08/01 05:04:42;;;;;;;7.60;5.87;;;;;;;15.39;99.11;99953.02;1645382;86;26309;-66
2022/08/01 05:07:10;;;;;;;7.53;5.30;;;;;;;15.44;98.65;99957.40;1681499;83;25398;-66
2022/08/01 05:09:38;;;;;;;10.28;5.35;;;;;;;15.47;98.69;99955.34;1681652;85;27330;-66
2022/08/01 05:12:07;;;;;;;7.17;5.17;;;;;;;15.52;98.86;99956.45;1681484;85;25768;-66
2022/08/01 05:14:33;;;;;;;7.87;5.20;;;;;;;15.57;98.76;99954.82;1681933;85;25638;-67
2022/08/01 05:17:06;;;;;;;5.87;5.10;;;;;;;15.63;99.18;99957.52;1681630;85;27757;-66
2022/08/01 05:19:34;;;;;;;13.32;4.90;;;;;;;15.71;98.92;99957.69;1681700;85;25694;-66
2022/08/01 05:22:06;;;;;;;9.30;4.97;;;;;;;15.75;98.35;99964.02;1681737;85;27340;-66
2022/08/01 05:24:37;;;;;;;13.40;5.70;;;;;;;15.78;98.00;99961.43;1681543;85;25570;-66
2022/08/01 05:27:06;;;;;;;8.50;4.62;;;;;;;15.83;98.08;99961.72;1682123;85;25608;-67
2022/08/01 05:29:32;;;;;;;7.03;5.10;;;;;;;15.89;98.10;99967.14;1681807;85;34676;-67
2022/08/01 05:31:59;;;;;;;6.90;4.72;;;;;;;15.95;97.80;99969.02;1680548;83;25646;-67
2022/08/01 05:34:26;;;;;;;8.98;4.53;;;;;;;16.00;97.67;99968.16;1680511;83;27488;-67
2022/08/01 05:36:52;;;;;;;10.93;4.62;;;;;;;16.04;97.38;99972.38;1680717;85;25583;-67
2022/08/01 05:39:18;;;;;;;8.28;4.92;;;;;;;16.09;97.38;99969.38;1662002;85;25597;-67
2022/08/01 05:41:45;;;;;;;7.05;4.75;;;;;;;16.14;97.21;99975.92;1681620;83;25974;-67
2022/08/01 05:44:11;;;;;;;6.92;4.60;;;;;;;16.15;96.52;99974.76;1681862;84;25414;-67
2022/08/01 05:46:38;;;;;;;8.38;5.17;;;;;;;16.16;96.10;99977.72;1681498;85;28080;-68
2022/08/01 05:49:05;;;;;;;6.15;4.42;;;;;;;16.18;95.82;99981.45;1681695;83;25463;-67
2022/08/01 05:51:33;;;;;;;6.42;5.33;;;;;;;16.16;95.21;99981.81;1639210;87;25591;-67
2022/08/01 05:54:01;;;;;;;6.10;5.03;;;;;;;16.13;94.75;99979.00;1642298;87;25583;-67
2022/08/01 05:56:27;;;;;;;7.75;4.65;;;;;;;16.10;94.29;99978.34;1683478;85;25649;-68
2022/08/01 05:58:53;;;;;;;6.12;5.00;;;;;;;16.03;93.98;99978.37;1683666;83;28086;-66
2022/08/01 06:01:19;;;;;;;7.30;5.58;;;;;;;16.02;94.17;99980.91;1683412;85;33580;-66
2022/08/01 06:03:46;;;;;;;21.17;14.83;;;;;;;16.03;94.20;99983.83;1639398;86;25580;-66
2022/08/01 06:06:17;;;;;;;9.70;6.22;;;;;;;16.08;94.62;99990.19;1639915;87;25633;-66
2022/08/01 06:08:41;;;;;;;8.03;5.45;;;;;;;16.14;94.87;99988.75;1637151;87;25636;-67
2022/08/01 06:11:08;;;;;;;7.22;5.40;;;;;;;16.20;95.00;99989.49;1682776;83;27394;-67
2022/08/01 06:13:34;;;;;;;10.50;5.53;;;;;;;16.29;94.68;99987.94;1617799;88;25478;-67
2022/08/01 06:16:00;;;;;;;7.05;4.85;;;;;;;16.37;95.20;99989.69;1617953;87;25717;-67
2022/08/01 06:18:26;;;;;;;11.73;4.17;;;;;;;16.52;95.75;99991.39;1618031;87;26290;-66
2022/08/01 06:20:52;;;;;;;8.95;4.50;;;;;;;16.64;95.64;99986.37;1624844;87;25655;-67
2022/08/01 06:23:21;;;;;;;5.35;4.10;;;;;;;16.79;96.12;99981.44;1628096;87;27316;-66
2022/08/01 06:25:48;;;;;;;7.28;4.00;;;;;;;16.95;96.04;99983.54;1635284;87;25669;-66
2022/08/01 06:28:14;;;;;;;4.95;4.00;;;;;;;17.10;95.13;99992.82;1680059;85;25674;-66
2022/08/01 06:30:40;;;;;;;6.53;3.55;;;;;;;17.28;95.30;99990.45;1680770;84;26295;-67
2022/08/01 06:33:06;;;;;;;6.40;3.50;;;;;;;17.46;94.90;99985.87;1632777;86;25576;-67
2022/08/01 06:35:32;;;;;;;6.30;3.50;;;;;;;17.66;94.59;99992.09;1644095;86;27401;-66
2022/08/01 06:37:58;;;;;;;4.65;3.33;;;;;;;17.82;93.44;99994.70;1637268;85;25784;-67
2022/08/01 06:40:24;;;;;;;5.92;3.22;;;;;;;18.02;93.04;99991.35;1683730;85;25638;-66
2022/08/01 06:42:50;;;;;;;4.70;3.25;;;;;;;18.22;92.78;99992.84;1640340;87;25714;-66
2022/08/01 06:45:17;;;;;;;7.25;4.60;;;;;;;18.44;91.82;99994.53;1683703;83;25651;-66
2022/08/01 06:47:45;;;;;;;7.05;3.25;;;;;;;18.71;91.73;99998.59;1686506;84;27324;-66
2022/08/01 06:50:13;;;;;;;7.83;3.15;;;;;;;18.92;90.60;99991.28;1680630;83;25637;-66
2022/08/01 06:52:39;;;;;;;5.90;3.50;;;;;;;19.14;89.60;99999.17;1676675;85;25461;-66
2022/08/01 06:55:07;;;;;;;7.97;4.60;;;;;;;19.39;89.67;99995.31;1676683;84;25717;-66
2022/08/01 06:57:33;;;;;;;5.28;3.02;;;;;;;19.67;89.51;99999.53;1676689;85;25695;-66
2022/08/01 07:00:11;;;;;;;3.80;2.90;;;;;;;19.93;88.04;99995.85;1676631;83;28034;-66
2022/08/01 07:02:37;;;;;;;5.28;4.50;;;;;;;20.18;87.06;99993.90;1676658;85;25661;-66
2022/08/01 07:05:05;;;;;;;4.45;2.95;;;;;;;20.46;86.87;99996.03;1676770;83;25572;-66
2022/08/01 07:07:31;;;;;;;5.25;2.52;;;;;;;20.65;84.95;99993.61;1676790;85;25603;-67
2022/08/01 07:09:58;;;;;;;2.83;2.52;;;;;;;20.78;83.06;99988.58;1676831;83;25412;-67
2022/08/01 07:12:24;;;;;;;8.35;2.72;;;;;;;20.99;83.33;99993.37;1676815;85;28129;-67
2022/08/01 07:14:50;;;;;;;3.65;2.85;;;;;;;21.27;83.35;99981.09;1677181;85;25622;-67
2022/08/01 07:17:16;;;;;;;2.90;2.70;;;;;;;21.56;83.16;99983.14;1673569;83;25583;-67
2022/08/01 07:19:42;;;;;;;6.37;2.35;;;;;;;21.85;81.07;99981.19;1674975;83;25687;-67
2022/08/01 07:22:09;;;;;;;4.12;1.75;;;;;;;22.07;79.80;99981.19;1676002;85;25435;-67
2022/08/01 07:24:35;;;;;;;3.27;1.98;;;;;;;22.32;78.43;99986.11;1676022;85;27328;-67
2022/08/01 07:27:01;;;;;;;4.70;2.27;;;;;;;22.51;77.33;99982.12;1675997;83;25458;-67
2022/08/01 07:29:27;;;;;;;3.35;1.95;;;;;;;22.82;76.13;99985.17;1672389;85;25510;-67
2022/08/01 07:31:56;;;;;;;4.30;2.17;;;;;;;23.12;75.97;99985.24;1675851;83;26317;-67
2022/08/01 07:34:24;;;;;;;3.45;1.95;;;;;;;23.39;74.65;99986.86;1675037;83;25454;-65
2022/08/01 07:36:51;;;;;;;7.70;1.87;;;;;;;23.60;72.92;99986.53;1676041;83;27401;-67
2022/08/01 07:39:18;;;;;;;5.65;2.17;;;;;;;23.81;72.65;99975.94;1675690;83;25706;-65
2022/08/01 07:41:44;;;;;;;4.28;1.98;;;;;;;24.07;71.83;99974.54;1672006;85;25670;-65
2022/08/01 07:44:10;;;;;;;5.37;3.37;;;;;;;24.35;71.20;99978.23;1675867;83;26278;-66
2022/08/01 07:46:36;;;;;;;4.40;2.30;;;;;;;24.57;69.14;99980.98;1674213;83;25564;-65
2022/08/01 07:49:03;;;;;;;2.75;1.98;;;;;;;24.85;68.60;99969.98;1672976;84;27371;-66
2022/08/01 07:51:29;;;;;;;5.75;2.35;;;;;;;25.15;67.78;99973.35;1675668;83;25482;-64
2022/08/01 07:53:55;;;;;;;2.20;1.70;;;;;;;25.37;66.38;99979.39;1675738;83;25659;-65
2022/08/01 07:56:23;;;;;;;10.35;1.92;;;;;;;25.56;64.69;99973.77;1675663;83;25594;-67
2022/08/01 07:58:50;;;;;;;5.28;1.92;;;;;;;25.80;63.37;99977.95;1672064;85;25604;-67
2022/08/01 08:01:19;;;;;;;3.77;1.50;;;;;;;25.91;62.48;99972.41;1669104;83;26007;-67
2022/08/01 09:02:49;;;;;;;2.62;1.40;;;;;;;29.89;48.74;100000.56;1819520;77;25502;-66
2022/08/01 09:05:17;;;;;;;2.65;2.05;;;;;;;29.83;48.35;100010.75;1782073;79;25647;-66
2022/08/01 09:07:43;;;;;;;5.07;1.70;;;;;;;29.95;48.25;100002.16;1786529;79;27403;-65
2022/08/01 09:10:09;;;;;;;3.45;1.50;;;;;;;29.90;47.57;100003.53;1804631;79;25857;-66
2022/08/01 09:12:37;;;;;;;3.35;1.52;;;;;;;30.14;47.43;99998.34;1783243;79;26025;-65
2022/08/01 09:15:04;;;;;;;5.22;1.70;;;;;;;30.50;46.95;100004.08;1805812;79;26003;-65
2022/08/01 09:17:41;;;;;;;3.05;1.60;;;;;;;30.61;46.79;100009.26;1782234;80;25704;-67
2022/08/01 09:20:12;;;;;;;2.87;1.60;;;;;;;30.83;45.76;100012.05;1789550;79;28282;-66
2022/08/01 09:22:38;;;;;;;10.85;3.85;;;;;;;31.12;45.68;100004.02;1778554;79;25885;-66
2022/08/01 09:25:08;;;;;;;9.40;2.25;;;;;;;31.39;44.42;100010.97;1783690;79;25620;-66
2022/08/01 09:27:40;;;;;;;4.90;1.92;;;;;;;31.54;44.02;100008.42;1720207;82;25655;-66
2022/08/01 09:30:17;;;;;;;7.90;1.55;;;;;;;31.61;42.92;100012.31;1726525;80;25456;-66
2022/08/01 09:33:02;;;;;;;7.55;3.42;;;;;;;31.51;42.33;100008.70;1754428;80;27522;-65
2022/08/01 09:35:36;;;;;;;4.03;1.75;;;;;;;31.63;42.86;100017.59;1753690;80;25697;-67
2022/08/01 09:38:20;;;;;;;4.03;1.60;;;;;;;31.89;41.61;100019.36;1737263;82;25707;-66
2022/08/01 09:40:59;;;;;;;5.85;1.75;;;;;;;32.16;41.56;100020.05;1740194;81;25737;-67
2022/08/01 09:43:30;;;;;;;3.25;1.90;;;;;;;32.41;41.56;100014.01;1727302;81;25743;-66
2022/08/01 11:12:05;;;;;;;4.35;1.72;;;;;;;34.30;32.42;99989.45;1788562;77;25716;-63
2022/08/01 11:14:32;;;;;;;1.80;1.30;;;;;;;34.01;31.41;99980.30;1765267;80;25725;-65
2022/08/01 11:17:35;;;;;;;6.75;1.57;;;;;;;33.60;33.03;99978.53;1767726;80;27461;-70
2022/08/01 11:20:09;;;;;;;1.30;1.05;;;;;;;33.63;33.84;99978.35;1763123;79;25690;-70
2022/08/01 11:23:04;;;;;;;5.62;1.90;;;;;;;33.22;33.86;99978.55;1764003;80;25374;-70
2022/08/01 11:25:41;;;;;;;2.60;1.15;;;;;;;32.78;33.98;99981.78;1737500;80;25911;-68
2022/08/01 11:28:20;;;;;;;2.22;1.50;;;;;;;32.43;34.86;99984.30;1765062;80;25669;-67
2022/08/01 11:31:16;;;;;;;1.90;1.17;;;;;;;32.12;35.35;99994.27;1756944;80;27557;-70
2022/08/01 11:33:47;;;;;;;2.40;1.40;;;;;;;31.77;35.09;99988.30;1755835;80;25864;-69
2022/08/01 11:36:17;;;;;;;2.55;2.05;;;;;;;31.56;36.51;99995.52;1772043;79;25383;-67
2022/08/01 11:39:06;;;;;;;4.20;1.45;;;;;;;31.46;36.20;99989.72;1764813;80;26005;-69
2022/08/01 11:41:35;;;;;;;3.10;1.52;;;;;;;31.27;34.71;99991.05;1766417;79;25654;-68
2022/08/01 11:44:26;;;;;;;3.45;1.30;;;;;;;30.59;34.57;99985.84;1763853;80;28094;-69
2022/08/01 11:47:07;;;;;;;3.12;1.30;;;;;;;30.28;35.94;99993.49;1746849;80;25704;-69
2022/08/01 11:49:47;;;;;;;2.02;1.47;;;;;;;30.22;36.01;99984.91;1740731;79;25652;-69
2022/08/01 11:52:22;;;;;;;5.12;1.60;;;;;;;30.22;35.87;99990.48;1764179;80;25717;-69
2022/08/01 11:54:54;;;;;;;3.02;1.32;;;;;;;30.29;36.67;99985.27;1772086;79;26262;-69
2022/08/01 11:57:29;;;;;;;1.30;1.10;;;;;;;30.40;36.79;99992.69;1751249;80;27506;-70
2022/08/01 11:59:58;;;;;;;5.08;1.60;;;;;;;30.39;36.41;99988.33;1751157;80;26771;-68
2022/08/01 12:02:31;;;;;;;2.33;1.30;;;;;;;30.52;36.72;99980.67;1744684;80;25739;-67
2022/08/01 12:05:05;;;;;;;3.10;1.40;;;;;;;30.76;37.39;99989.22;1775690;80;25733;-68
2022/08/01 12:07:34;;;;;;;3.25;1.62;;;;;;;30.90;37.18;99992.85;1773377;79;25719;-67
2022/08/01 12:10:06;;;;;;;2.00;1.72;;;;;;;31.01;36.58;99984.12;1760915;80;27518;-68
2022/08/01 12:12:35;;;;;;;2.62;1.50;;;;;;;31.25;36.50;99984.38;1737091;79;25521;-67
2022/08/01 12:15:07;;;;;;;1.87;1.25;;;;;;;31.34;35.73;99979.44;1713778;81;25721;-69
2022/08/01 12:17:43;;;;;;;3.05;1.60;;;;;;;31.45;35.79;99981.20;1744546;81;25670;-69
2022/08/01 12:20:16;;;;;;;2.02;1.82;;;;;;;31.42;35.48;99987.07;1741712;81;25711;-69
2022/08/01 12:22:43;;;;;;;3.98;1.42;;;;;;;30.98;34.90;99981.61;1712120;82;28408;-68
2022/08/01 12:25:14;;;;;;;2.62;1.47;;;;;;;30.78;35.89;99987.51;1721179;81;25453;-69
2022/08/01 12:27:43;;;;;;;2.17;1.55;;;;;;;30.89;36.24;99980.14;1707252;81;25644;-68
2022/08/01 12:30:16;;;;;;;3.92;1.45;;;;;;;31.07;35.67;99975.28;1722550;82;25835;-67
2022/08/01 12:32:48;;;;;;;3.22;1.70;;;;;;;31.08;35.68;99978.25;1725126;82;25675;-68
2022/08/01 12:35:18;;;;;;;3.37;1.90;;;;;;;30.96;35.09;99981.30;1725384;82;27508;-67
2022/08/01 12:37:50;;;;;;;6.30;1.70;;;;;;;30.69;35.35;99982.66;1725170;82;25691;-66
2022/08/01 12:40:24;;;;;;;4.83;3.27;;;;;;;30.40;35.54;99985.71;1725767;81;25758;-67
2022/08/01 12:43:00;;;;;;;31.62;24.87;;;;;;;30.08;36.02;99986.19;1737894;81;25789;-66
2022/08/01 12:45:31;;;;;;;4.72;2.72;;;;;;;29.88;36.44;99980.91;1718945;82;25682;-67
2022/08/01 12:48:00;;;;;;;4.85;1.70;;;;;;;29.78;36.84;99977.25;1736655;82;28387;-67
2022/08/01 12:50:30;;;;;;;3.77;1.47;;;;;;;30.06;37.32;99980.28;1730419;81;25736;-67
2022/08/01 12:52:57;;;;;;;4.12;2.02;;;;;;;30.32;36.74;99987.16;1724137;82;25576;-67
2022/08/01 12:55:27;;;;;;;1.85;1.50;;;;;;;30.41;36.61;99980.30;1743734;81;25449;-67
2022/08/01 12:58:08;;;;;;;4.22;1.52;;;;;;;30.62;36.82;99968.20;1718233;80;25704;-67
2022/08/01 13:00:36;;;;;;;3.65;1.50;;;;;;;30.76;36.22;99974.63;1721958;82;27864;-67
2022/08/01 13:03:15;;;;;;;1.65;1.40;;;;;;;30.74;36.35;99979.90;1708538;82;25730;-67
2022/08/01 13:05:55;;;;;;;1.95;1.35;;;;;;;30.64;36.13;99974.87;1707029;80;25692;-68
2022/08/01 13:08:34;;;;;;;2.60;1.80;;;;;;;30.62;35.83;99961.99;1722746;80;26402;-66
2022/08/01 13:11:09;;;;;;;5.47;1.80;;;;;;;30.69;36.89;99960.33;1682976;83;25660;-66
2022/08/01 13:13:51;;;;;;;6.28;3.67;;;;;;;30.85;36.54;99962.73;1664035;84;27474;-66
2022/08/01 13:16:21;;;;;;;6.08;1.80;;;;;;;30.96;37.00;99956.16;1652985;84;25759;-67
2022/08/01 13:18:53;;;;;;;4.20;2.02;;;;;;;31.01;36.57;99967.36;1689853;84;25519;-67
2022/08/01 13:21:27;;;;;;;4.37;1.87;;;;;;;30.99;36.68;99951.66;1691632;84;26029;-67
2022/08/01 13:24:12;;;;;;;3.15;1.80;;;;;;;31.03;36.60;99955.87;1704173;83;25789;-67
2022/08/01 13:26:51;;;;;;;3.75;1.98;;;;;;;30.92;36.25;99958.27;1695314;84;27497;-68
2022/08/01 13:29:22;;;;;;;5.42;2.10;;;;;;;30.79;36.12;99960.39;1671791;84;25706;-70
2022/08/01 13:31:49;;;;;;;1.75;1.65;;;;;;;30.72;36.32;99960.05;1669455;85;26530;-68
2022/08/01 13:34:16;;;;;;;3.17;1.85;;;;;;;30.61;36.14;99961.05;1677709;85;25966;-67
2022/08/01 13:36:42;;;;;;;6.22;1.90;;;;;;;30.51;36.50;99967.18;1699015;83;25728;-67
2022/08/01 13:41:55;;;;;;;2.45;1.35;;;;;;;30.21;36.33;99961.67;1688856;82;25281;-67
2022/08/01 13:44:21;;;;;;;1.55;1.37;;;;;;;30.27;36.11;99966.20;1688763;83;25695;-67
2022/08/01 13:46:47;;;;;;;2.95;1.45;;;;;;;30.24;36.93;99966.33;1681415;83;25677;-67
2022/08/01 13:49:14;;;;;;;1.92;1.55;;;;;;;30.26;36.54;99972.25;1680097;83;25748;-67
2022/08/01 13:51:40;;;;;;;3.02;1.62;;;;;;;30.27;36.37;99968.22;1732122;80;27552;-67
2022/08/01 13:54:07;;;;;;;4.35;1.75;;;;;;;30.30;36.62;99968.71;1716460;82;25898;-67
2022/08/01 13:56:33;;;;;;;4.17;2.20;;;;;;;30.34;36.26;99965.17;1714848;81;26424;-67
2022/08/01 13:58:59;;;;;;;6.42;2.15;;;;;;;30.23;36.88;99968.34;1718449;82;25749;-67
2022/08/01 14:01:25;;;;;;;4.03;1.77;;;;;;;30.22;36.49;99967.40;1717396;82;25704;-66
2022/08/01 14:03:52;;;;;;;3.05;1.95;;;;;;;30.12;36.97;99971.52;1741021;81;27478;-67
2022/08/01 14:06:40;;;;;;;4.28;1.85;;;;;;;30.14;37.50;99971.84;1712496;81;25683;-68
2022/08/01 14:09:07;;;;;;;3.15;1.35;;;;;;;30.22;37.03;99982.11;1739635;81;25754;-70
2022/08/01 14:11:34;;;;;;;2.35;2.00;;;;;;;30.09;36.71;99976.60;1736495;81;25688;-70
2022/08/01 14:14:00;;;;;;;7.42;2.05;;;;;;;29.88;36.91;99984.29;1745557;81;25716;-70